createdAt,value
2018-08-24T00:09:42.821Z,24.6
2018-08-24T00:19:42.060Z,24.5
2018-08-24T00:29:41.303Z,24.4
2018-08-24T00:39:40.542Z,24.3
2018-08-24T00:49:39.784Z,24.1
2018-08-24T00:59:39.034Z,24
2018-08-24T01:09:38.264Z,23.9
2018-08-24T01:19:37.509Z,23.8
2018-08-24T01:29:36.745Z,23.8
2018-08-24T01:39:35.990Z,23.8
2018-08-24T01:49:35.230Z,23.7
2018-08-24T01:59:34.466Z,23.7
2018-08-24T02:09:33.706Z,23.7
2018-08-24T02:19:32.949Z,23.7
2018-08-24T02:29:32.252Z,23.7
2018-08-24T02:39:31.435Z,23.7
2018-08-24T02:49:30.673Z,23.7
2018-08-24T02:59:29.909Z,23.7
2018-08-24T03:09:29.156Z,23.6
2018-08-24T03:19:28.389Z,23.6
2018-08-24T03:29:27.631Z,23.4
2018-08-24T03:39:26.880Z,23.4
2018-08-24T03:49:26.122Z,23.3
2018-08-24T03:59:25.353Z,23.2
2018-08-24T04:09:24.601Z,23.1
2018-08-24T04:19:23.904Z,23.1
2018-08-24T04:29:23.079Z,23
2018-08-24T04:39:22.324Z,23
2018-08-24T04:49:21.563Z,23.1
2018-08-24T04:59:20.810Z,23.3
2018-08-24T05:09:20.050Z,23.4
2018-08-24T05:19:19.292Z,23.6
2018-08-24T05:29:18.535Z,23.8
2018-08-24T05:39:17.778Z,23.9
2018-08-24T05:49:17.020Z,24.2
2018-08-24T05:59:16.262Z,24.4
2018-08-24T06:09:15.505Z,24.7
2018-08-24T06:19:14.746Z,24.9
2018-08-24T06:29:13.988Z,25.1
2018-08-24T06:39:13.230Z,25.3
2018-08-24T06:49:12.471Z,25.4
2018-08-24T06:59:11.711Z,25.6
2018-08-24T07:09:10.953Z,25.8
2018-08-24T07:19:10.194Z,26
2018-08-24T07:29:09.437Z,26.3
2018-08-24T07:39:08.680Z,26.5
2018-08-24T07:49:07.927Z,26.7
2018-08-24T07:59:07.169Z,26.8
2018-08-24T08:09:06.403Z,26.9
2018-08-24T08:19:05.645Z,26.9
2018-08-24T08:29:04.885Z,27
2018-08-24T08:39:04.213Z,27.1
2018-08-24T08:49:03.369Z,27.1
2018-08-24T08:59:02.610Z,27.1
2018-08-24T09:09:01.852Z,27.2
2018-08-24T09:19:01.094Z,27.3
2018-08-24T09:29:00.386Z,27.3
2018-08-24T09:38:59.579Z,27.4
2018-08-24T09:48:58.898Z,27.5
2018-08-24T09:58:58.057Z,27.6
2018-08-24T10:08:57.299Z,27.8
2018-08-24T10:18:56.541Z,27.8
2018-08-24T10:28:55.784Z,27.9
2018-08-24T10:38:55.064Z,27.9
2018-08-24T10:48:54.264Z,27.9
2018-08-24T10:58:53.504Z,27.9
2018-08-24T11:08:52.746Z,27.9
2018-08-24T11:18:51.985Z,27.9
2018-08-24T11:28:51.234Z,27.9
2018-08-24T11:38:50.478Z,27.9
2018-08-24T11:48:49.711Z,27.9
2018-08-24T11:58:49.001Z,27.9
2018-08-24T12:08:48.192Z,27.9
2018-08-24T12:18:47.438Z,27.9
2018-08-24T12:28:46.677Z,27.9
2018-08-24T12:38:45.922Z,27.9
2018-08-24T12:48:45.162Z,27.8
2018-08-24T12:58:44.407Z,27.8
2018-08-24T13:08:43.678Z,27.8
2018-08-24T13:18:42.887Z,27.8
2018-08-24T13:28:42.126Z,27.8
2018-08-24T13:38:41.369Z,27.8
2018-08-24T13:48:40.611Z,27.8
2018-08-24T13:58:39.855Z,27.8
2018-08-24T14:08:39.101Z,27.8
2018-08-24T14:18:38.334Z,27.8
2018-08-24T14:28:37.574Z,27.8
2018-08-24T14:38:36.820Z,27.8
2018-08-24T14:48:36.062Z,27.8
2018-08-24T14:58:35.301Z,27.8
2018-08-24T15:08:34.548Z,27.8
2018-08-24T15:18:33.794Z,27.8
2018-08-24T15:28:33.033Z,27.8
2018-08-24T15:38:32.276Z,27.7
2018-08-24T15:48:31.521Z,27.7
2018-08-24T15:58:30.765Z,27.6
2018-08-24T16:08:30.011Z,27.6
2018-08-24T16:18:29.254Z,27.6
2018-08-24T16:28:28.507Z,27.6
2018-08-24T16:38:27.744Z,27.4
2018-08-24T16:48:26.989Z,27.3
2018-08-24T16:58:26.251Z,27.3
2018-08-24T17:08:25.483Z,27.1
2018-08-24T17:18:24.724Z,27.1
2018-08-24T17:28:24.026Z,27.1
2018-08-24T17:38:23.217Z,27.1
2018-08-24T17:48:22.464Z,27
2018-08-24T17:58:21.707Z,26.9
2018-08-24T18:08:20.950Z,26.9
2018-08-24T18:18:20.194Z,26.8
2018-08-24T18:28:19.443Z,26.8
2018-08-24T18:38:18.692Z,26.8
2018-08-24T18:48:17.928Z,26.8
2018-08-24T18:58:17.175Z,26.8
2018-08-24T19:08:16.416Z,26.8
2018-08-24T19:18:15.664Z,26.8
2018-08-24T19:28:14.921Z,26.6
2018-08-24T19:38:14.164Z,26.6
2018-08-24T19:48:13.415Z,26.7
2018-08-24T19:58:12.656Z,26.7
2018-08-24T20:08:11.902Z,26.7
2018-08-24T20:18:11.149Z,26.6
2018-08-24T20:28:10.400Z,26.5
2018-08-24T20:38:09.636Z,26.4
2018-08-24T20:48:08.878Z,26.1
2018-08-24T20:58:08.120Z,25.9
2018-08-24T21:08:07.363Z,25.7
2018-08-24T21:18:06.609Z,25.5
2018-08-24T21:28:05.852Z,25.3
2018-08-24T21:38:05.091Z,25.1
2018-08-24T21:48:04.340Z,25
2018-08-24T21:58:03.650Z,24.9
2018-08-24T22:08:02.818Z,24.8
2018-08-24T22:18:02.066Z,24.6
2018-08-24T22:28:01.305Z,24.5
2018-08-24T22:38:00.548Z,24.4
2018-08-24T22:47:59.786Z,24.4
2018-08-24T22:57:59.026Z,24.3
2018-08-24T23:07:58.269Z,24.3
2018-08-24T23:17:57.510Z,24.2
2018-08-24T23:27:56.753Z,24.1
2018-08-24T23:37:55.999Z,24.1
2018-08-24T23:47:55.237Z,24
2018-08-24T23:57:54.483Z,24.1
